sensor_id;sensor_type;location;lat;lon;timestamp;P1;durP1;ratioP1;P2;durP2;ratioP2
13445;SDS011;6795;51.232;3.764;2022-08-19T00:01:43;81.22;;;44.95;;
13445;SDS011;6795;51.232;3.764;2022-08-19T00:04:20;92.43;;;45.50;;
13445;SDS011;6795;51.232;3.764;2022-08-19T00:06:50;92.07;;;45.58;;
13445;SDS011;6795;51.232;3.764;2022-08-19T00:09:21;89.95;;;43.92;;
13445;SDS011;6795;51.232;3.764;2022-08-19T00:11:51;85.25;;;42.72;;
13445;SDS011;6795;51.232;3.764;2022-08-19T00:14:22;82.80;;;42.70;;
13445;SDS011;6795;51.232;3.764;2022-08-19T00:16:52;89.50;;;43.53;;
13445;SDS011;6795;51.232;3.764;2022-08-19T00:19:21;83.65;;;42.17;;
13445;SDS011;6795;51.232;3.764;2022-08-19T00:21:50;89.32;;;44.53;;
13445;SDS011;6795;51.232;3.764;2022-08-19T00:24:18;82.13;;;41.78;;
13445;SDS011;6795;51.232;3.764;2022-08-19T00:26:49;87.32;;;42.50;;
13445;SDS011;6795;51.232;3.764;2022-08-19T00:29:18;79.85;;;41.65;;
13445;SDS011;6795;51.232;3.764;2022-08-19T00:31:47;86.65;;;41.17;;
13445;SDS011;6795;51.232;3.764;2022-08-19T00:34:16;82.57;;;40.63;;
13445;SDS011;6795;51.232;3.764;2022-08-19T00:36:44;91.20;;;41.97;;
13445;SDS011;6795;51.232;3.764;2022-08-19T00:39:14;84.13;;;41.25;;
13445;SDS011;6795;51.232;3.764;2022-08-19T00:41:44;72.82;;;39.40;;
13445;SDS011;6795;51.232;3.764;2022-08-19T00:44:16;77.45;;;39.22;;
13445;SDS011;6795;51.232;3.764;2022-08-19T00:46:52;76.75;;;39.22;;
13445;SDS011;6795;51.232;3.764;2022-08-19T00:49:26;77.85;;;40.42;;
13445;SDS011;6795;51.232;3.764;2022-08-19T00:51:59;78.18;;;38.95;;
13445;SDS011;6795;51.232;3.764;2022-08-19T00:54:29;72.28;;;38.55;;
13445;SDS011;6795;51.232;3.764;2022-08-19T00:57:01;80.93;;;39.53;;
13445;SDS011;6795;51.232;3.764;2022-08-19T00:59:33;75.75;;;39.55;;
13445;SDS011;6795;51.232;3.764;2022-08-19T01:02:24;75.22;;;38.72;;
13445;SDS011;6795;51.232;3.764;2022-08-19T01:04:53;70.53;;;36.25;;
13445;SDS011;6795;51.232;3.764;2022-08-19T01:07:22;76.25;;;38.08;;
13445;SDS011;6795;51.232;3.764;2022-08-19T01:09:51;72.22;;;37.83;;
13445;SDS011;6795;51.232;3.764;2022-08-19T01:12:21;67.60;;;36.15;;
13445;SDS011;6795;51.232;3.764;2022-08-19T01:14:49;68.55;;;38.08;;
13445;SDS011;6795;51.232;3.764;2022-08-19T01:17:18;74.90;;;37.13;;
13445;SDS011;6795;51.232;3.764;2022-08-19T01:19:47;74.10;;;38.05;;
13445;SDS011;6795;51.232;3.764;2022-08-19T01:22:16;71.28;;;35.75;;
13445;SDS011;6795;51.232;3.764;2022-08-19T01:24:59;65.05;;;34.40;;
13445;SDS011;6795;51.232;3.764;2022-08-19T01:27:36;63.65;;;34.65;;
13445;SDS011;6795;51.232;3.764;2022-08-19T01:30:09;64.65;;;33.08;;
13445;SDS011;6795;51.232;3.764;2022-08-19T01:32:41;60.72;;;32.25;;
13445;SDS011;6795;51.232;3.764;2022-08-19T01:35:10;62.08;;;33.25;;
13445;SDS011;6795;51.232;3.764;2022-08-19T01:37:47;63.67;;;31.77;;
13445;SDS011;6795;51.232;3.764;2022-08-19T01:40:20;62.70;;;32.08;;
13445;SDS011;6795;51.232;3.764;2022-08-19T01:42:50;54.70;;;29.52;;
13445;SDS011;6795;51.232;3.764;2022-08-19T01:45:20;60.15;;;32.08;;
13445;SDS011;6795;51.232;3.764;2022-08-19T01:47:49;66.00;;;30.98;;
13445;SDS011;6795;51.232;3.764;2022-08-19T01:50:28;58.80;;;31.15;;
13445;SDS011;6795;51.232;3.764;2022-08-19T01:52:57;68.80;;;32.50;;
13445;SDS011;6795;51.232;3.764;2022-08-19T01:55:35;66.88;;;31.10;;
13445;SDS011;6795;51.232;3.764;2022-08-19T01:58:07;61.35;;;32.13;;
13445;SDS011;6795;51.232;3.764;2022-08-19T02:00:38;59.72;;;31.05;;
13445;SDS011;6795;51.232;3.764;2022-08-19T02:03:06;65.03;;;30.85;;
13445;SDS011;6795;51.232;3.764;2022-08-19T02:05:35;65.25;;;30.50;;
13445;SDS011;6795;51.232;3.764;2022-08-19T02:08:04;58.63;;;30.63;;
13445;SDS011;6795;51.232;3.764;2022-08-19T02:10:37;58.95;;;29.75;;
13445;SDS011;6795;51.232;3.764;2022-08-19T02:13:06;58.08;;;30.58;;
13445;SDS011;6795;51.232;3.764;2022-08-19T02:15:36;68.38;;;31.67;;
13445;SDS011;6795;51.232;3.764;2022-08-19T02:18:04;66.43;;;30.58;;
13445;SDS011;6795;51.232;3.764;2022-08-19T02:20:34;65.35;;;32.08;;
13445;SDS011;6795;51.232;3.764;2022-08-19T02:23:03;66.05;;;32.75;;
13445;SDS011;6795;51.232;3.764;2022-08-19T02:25:43;68.13;;;31.00;;
13445;SDS011;6795;51.232;3.764;2022-08-19T02:28:12;63.35;;;31.13;;
13445;SDS011;6795;51.232;3.764;2022-08-19T02:30:44;73.50;;;33.22;;
13445;SDS011;6795;51.232;3.764;2022-08-19T02:33:14;70.70;;;33.40;;
13445;SDS011;6795;51.232;3.764;2022-08-19T02:35:44;73.03;;;33.45;;
13445;SDS011;6795;51.232;3.764;2022-08-19T02:38:14;77.65;;;35.33;;
13445;SDS011;6795;51.232;3.764;2022-08-19T02:40:56;71.78;;;34.03;;
13445;SDS011;6795;51.232;3.764;2022-08-19T02:43:26;73.32;;;35.70;;
13445;SDS011;6795;51.232;3.764;2022-08-19T02:45:59;78.63;;;34.50;;
13445;SDS011;6795;51.232;3.764;2022-08-19T02:48:28;76.85;;;36.40;;
13445;SDS011;6795;51.232;3.764;2022-08-19T02:50:59;76.55;;;35.13;;
13445;SDS011;6795;51.232;3.764;2022-08-19T02:53:27;78.07;;;36.47;;
13445;SDS011;6795;51.232;3.764;2022-08-19T02:55:57;79.28;;;34.83;;
13445;SDS011;6795;51.232;3.764;2022-08-19T02:58:26;80.07;;;33.47;;
13445;SDS011;6795;51.232;3.764;2022-08-19T03:00:55;84.05;;;35.35;;
13445;SDS011;6795;51.232;3.764;2022-08-19T03:03:23;71.85;;;33.50;;
13445;SDS011;6795;51.232;3.764;2022-08-19T03:06:02;72.68;;;33.97;;
13445;SDS011;6795;51.232;3.764;2022-08-19T03:08:31;72.88;;;33.40;;
13445;SDS011;6795;51.232;3.764;2022-08-19T03:11:01;68.22;;;33.70;;
13445;SDS011;6795;51.232;3.764;2022-08-19T03:13:30;63.83;;;32.75;;
13445;SDS011;6795;51.232;3.764;2022-08-19T03:15:59;62.97;;;31.75;;
13445;SDS011;6795;51.232;3.764;2022-08-19T03:18:27;68.63;;;33.25;;
13445;SDS011;6795;51.232;3.764;2022-08-19T03:20:55;61.42;;;31.10;;
13445;SDS011;6795;51.232;3.764;2022-08-19T03:23:23;70.03;;;33.03;;
13445;SDS011;6795;51.232;3.764;2022-08-19T03:25:52;69.90;;;33.30;;
13445;SDS011;6795;51.232;3.764;2022-08-19T03:28:30;63.85;;;31.23;;
13445;SDS011;6795;51.232;3.764;2022-08-19T03:30:59;66.80;;;32.60;;
13445;SDS011;6795;51.232;3.764;2022-08-19T03:33:49;72.18;;;31.10;;
13445;SDS011;6795;51.232;3.764;2022-08-19T03:36:20;64.63;;;30.90;;
13445;SDS011;6795;51.232;3.764;2022-08-19T03:38:53;56.00;;;28.23;;
13445;SDS011;6795;51.232;3.764;2022-08-19T03:41:26;67.35;;;30.77;;
13445;SDS011;6795;51.232;3.764;2022-08-19T03:44:12;60.97;;;30.55;;
13445;SDS011;6795;51.232;3.764;2022-08-19T03:46:44;60.67;;;29.88;;
13445;SDS011;6795;51.232;3.764;2022-08-19T03:49:13;61.38;;;27.85;;
13445;SDS011;6795;51.232;3.764;2022-08-19T03:51:44;56.15;;;28.75;;
13445;SDS011;6795;51.232;3.764;2022-08-19T03:54:14;62.47;;;28.00;;
13445;SDS011;6795;51.232;3.764;2022-08-19T03:56:46;53.17;;;28.15;;
13445;SDS011;6795;51.232;3.764;2022-08-19T03:59:20;61.58;;;28.88;;
13445;SDS011;6795;51.232;3.764;2022-08-19T04:01:52;65.78;;;28.45;;
13445;SDS011;6795;51.232;3.764;2022-08-19T04:04:22;54.75;;;26.73;;
13445;SDS011;6795;51.232;3.764;2022-08-19T04:06:54;61.38;;;29.88;;
13445;SDS011;6795;51.232;3.764;2022-08-19T04:09:24;58.95;;;27.27;;
13445;SDS011;6795;51.232;3.764;2022-08-19T04:11:54;58.90;;;26.80;;
13445;SDS011;6795;51.232;3.764;2022-08-19T04:14:26;62.20;;;27.92;;
13445;SDS011;6795;51.232;3.764;2022-08-19T04:16:56;57.65;;;25.85;;
13445;SDS011;6795;51.232;3.764;2022-08-19T04:19:26;61.20;;;26.92;;
13445;SDS011;6795;51.232;3.764;2022-08-19T04:21:56;61.70;;;25.95;;
13445;SDS011;6795;51.232;3.764;2022-08-19T04:24:25;52.17;;;25.02;;
13445;SDS011;6795;51.232;3.764;2022-08-19T04:26:55;65.80;;;27.80;;
13445;SDS011;6795;51.232;3.764;2022-08-19T04:29:25;57.17;;;25.77;;
13445;SDS011;6795;51.232;3.764;2022-08-19T04:31:55;57.60;;;26.58;;
13445;SDS011;6795;51.232;3.764;2022-08-19T04:34:24;60.08;;;27.67;;
13445;SDS011;6795;51.232;3.764;2022-08-19T04:36:54;55.22;;;25.90;;
13445;SDS011;6795;51.232;3.764;2022-08-19T04:39:24;56.38;;;26.85;;
13445;SDS011;6795;51.232;3.764;2022-08-19T04:42:15;50.60;;;24.70;;
13445;SDS011;6795;51.232;3.764;2022-08-19T04:45:03;56.47;;;25.88;;
13445;SDS011;6795;51.232;3.764;2022-08-19T04:47:37;59.65;;;25.45;;
13445;SDS011;6795;51.232;3.764;2022-08-19T04:50:24;52.45;;;23.77;;
13445;SDS011;6795;51.232;3.764;2022-08-19T04:52:52;57.70;;;24.50;;
13445;SDS011;6795;51.232;3.764;2022-08-19T04:55:21;60.95;;;24.42;;
13445;SDS011;6795;51.232;3.764;2022-08-19T04:57:52;51.92;;;23.85;;
13445;SDS011;6795;51.232;3.764;2022-08-19T05:00:21;60.08;;;25.80;;
13445;SDS011;6795;51.232;3.764;2022-08-19T05:02:51;56.22;;;25.92;;
13445;SDS011;6795;51.232;3.764;2022-08-19T05:05:19;51.33;;;25.35;;
13445;SDS011;6795;51.232;3.764;2022-08-19T05:07:47;54.50;;;25.80;;
13445;SDS011;6795;51.232;3.764;2022-08-19T05:10:16;63.40;;;27.95;;
13445;SDS011;6795;51.232;3.764;2022-08-19T05:12:45;53.08;;;24.55;;
13445;SDS011;6795;51.232;3.764;2022-08-19T05:15:13;57.97;;;26.98;;
13445;SDS011;6795;51.232;3.764;2022-08-19T05:17:44;51.53;;;25.10;;
13445;SDS011;6795;51.232;3.764;2022-08-19T05:20:32;57.97;;;27.27;;
13445;SDS011;6795;51.232;3.764;2022-08-19T05:23:17;47.30;;;23.20;;
13445;SDS011;6795;51.232;3.764;2022-08-19T05:25:48;52.53;;;25.25;;
13445;SDS011;6795;51.232;3.764;2022-08-19T05:28:18;56.22;;;24.95;;
13445;SDS011;6795;51.232;3.764;2022-08-19T05:30:46;56.75;;;24.42;;
13445;SDS011;6795;51.232;3.764;2022-08-19T05:33:18;61.03;;;23.98;;
13445;SDS011;6795;51.232;3.764;2022-08-19T05:35:46;59.45;;;24.38;;
13445;SDS011;6795;51.232;3.764;2022-08-19T05:38:15;46.33;;;23.42;;
13445;SDS011;6795;51.232;3.764;2022-08-19T05:40:44;41.75;;;22.50;;
13445;SDS011;6795;51.232;3.764;2022-08-19T05:43:13;45.30;;;23.63;;
13445;SDS011;6795;51.232;3.764;2022-08-19T05:45:43;49.83;;;23.33;;
13445;SDS011;6795;51.232;3.764;2022-08-19T05:48:12;41.00;;;21.45;;
13445;SDS011;6795;51.232;3.764;2022-08-19T05:50:41;45.17;;;23.33;;
13445;SDS011;6795;51.232;3.764;2022-08-19T05:53:11;59.75;;;23.55;;
13445;SDS011;6795;51.232;3.764;2022-08-19T05:55:40;49.03;;;22.98;;
13445;SDS011;6795;51.232;3.764;2022-08-19T05:58:09;49.85;;;23.08;;
13445;SDS011;6795;51.232;3.764;2022-08-19T06:00:40;56.72;;;24.00;;
13445;SDS011;6795;51.232;3.764;2022-08-19T06:03:11;61.45;;;22.88;;
13445;SDS011;6795;51.232;3.764;2022-08-19T06:05:39;65.90;;;24.88;;
13445;SDS011;6795;51.232;3.764;2022-08-19T06:08:18;50.03;;;23.20;;
13445;SDS011;6795;51.232;3.764;2022-08-19T06:13:45;48.15;;;23.75;;
13445;SDS011;6795;51.232;3.764;2022-08-19T06:16:17;58.97;;;23.80;;
13445;SDS011;6795;51.232;3.764;2022-08-19T06:18:49;48.35;;;23.10;;
13445;SDS011;6795;51.232;3.764;2022-08-19T06:21:20;42.47;;;21.88;;
13445;SDS011;6795;51.232;3.764;2022-08-19T06:23:50;46.47;;;21.70;;
13445;SDS011;6795;51.232;3.764;2022-08-19T06:26:19;38.60;;;20.30;;
13445;SDS011;6795;51.232;3.764;2022-08-19T06:28:48;42.45;;;22.83;;
13445;SDS011;6795;51.232;3.764;2022-08-19T06:31:17;45.20;;;22.50;;
13445;SDS011;6795;51.232;3.764;2022-08-19T06:33:47;40.65;;;20.92;;
13445;SDS011;6795;51.232;3.764;2022-08-19T06:36:18;51.67;;;23.13;;
13445;SDS011;6795;51.232;3.764;2022-08-19T06:38:59;40.70;;;22.25;;
13445;SDS011;6795;51.232;3.764;2022-08-19T06:41:28;37.63;;;20.58;;
13445;SDS011;6795;51.232;3.764;2022-08-19T06:43:58;36.33;;;21.52;;
13445;SDS011;6795;51.232;3.764;2022-08-19T06:46:28;29.08;;;18.25;;
13445;SDS011;6795;51.232;3.764;2022-08-19T06:49:00;40.33;;;18.08;;
13445;SDS011;6795;51.232;3.764;2022-08-19T06:51:32;33.25;;;17.52;;
13445;SDS011;6795;51.232;3.764;2022-08-19T06:54:08;27.63;;;17.00;;
13445;SDS011;6795;51.232;3.764;2022-08-19T06:56:45;21.48;;;14.10;;
13445;SDS011;6795;51.232;3.764;2022-08-19T06:59:14;32.65;;;16.42;;
13445;SDS011;6795;51.232;3.764;2022-08-19T07:01:44;17.65;;;14.93;;
13445;SDS011;6795;51.232;3.764;2022-08-19T07:04:17;22.15;;;15.00;;
13445;SDS011;6795;51.232;3.764;2022-08-19T07:06:48;26.40;;;16.08;;
13445;SDS011;6795;51.232;3.764;2022-08-19T07:09:21;26.58;;;14.75;;
13445;SDS011;6795;51.232;3.764;2022-08-19T07:11:50;25.50;;;16.25;;
13445;SDS011;6795;51.232;3.764;2022-08-19T07:14:21;27.30;;;15.60;;
13445;SDS011;6795;51.232;3.764;2022-08-19T07:16:52;20.23;;;15.80;;
13445;SDS011;6795;51.232;3.764;2022-08-19T07:19:22;21.92;;;15.20;;
13445;SDS011;6795;51.232;3.764;2022-08-19T07:21:54;22.60;;;14.75;;
13445;SDS011;6795;51.232;3.764;2022-08-19T07:24:23;24.98;;;14.98;;
13445;SDS011;6795;51.232;3.764;2022-08-19T07:26:59;22.20;;;15.32;;
13445;SDS011;6795;51.232;3.764;2022-08-19T07:29:34;21.23;;;15.15;;
13445;SDS011;6795;51.232;3.764;2022-08-19T07:32:04;19.60;;;13.32;;
13445;SDS011;6795;51.232;3.764;2022-08-19T07:34:38;19.90;;;14.25;;
13445;SDS011;6795;51.232;3.764;2022-08-19T07:37:09;19.45;;;13.45;;
13445;SDS011;6795;51.232;3.764;2022-08-19T07:39:38;29.77;;;13.93;;
13445;SDS011;6795;51.232;3.764;2022-08-19T07:42:08;23.15;;;13.73;;
13445;SDS011;6795;51.232;3.764;2022-08-19T07:44:39;33.58;;;15.25;;
13445;SDS011;6795;51.232;3.764;2022-08-19T07:47:16;19.13;;;13.10;;
13445;SDS011;6795;51.232;3.764;2022-08-19T07:50:06;19.48;;;12.27;;
13445;SDS011;6795;51.232;3.764;2022-08-19T07:52:39;23.38;;;13.75;;
13445;SDS011;6795;51.232;3.764;2022-08-19T07:55:14;33.40;;;15.25;;
13445;SDS011;6795;51.232;3.764;2022-08-19T07:58:03;32.22;;;13.95;;
13445;SDS011;6795;51.232;3.764;2022-08-19T08:00:32;20.85;;;13.00;;
13445;SDS011;6795;51.232;3.764;2022-08-19T08:03:01;22.55;;;13.25;;
13445;SDS011;6795;51.232;3.764;2022-08-19T08:05:30;19.20;;;13.27;;
13445;SDS011;6795;51.232;3.764;2022-08-19T08:08:18;24.55;;;13.52;;
13445;SDS011;6795;51.232;3.764;2022-08-19T08:11:09;23.70;;;13.90;;
13445;SDS011;6795;51.232;3.764;2022-08-19T08:13:41;29.05;;;12.95;;
13445;SDS011;6795;51.232;3.764;2022-08-19T08:16:09;26.15;;;13.90;;
13445;SDS011;6795;51.232;3.764;2022-08-19T08:18:40;24.95;;;14.65;;
13445;SDS011;6795;51.232;3.764;2022-08-19T08:21:16;22.58;;;14.32;;
13445;SDS011;6795;51.232;3.764;2022-08-19T08:23:46;19.15;;;13.90;;
13445;SDS011;6795;51.232;3.764;2022-08-19T08:26:14;20.77;;;13.93;;
13445;SDS011;6795;51.232;3.764;2022-08-19T08:28:44;25.73;;;14.85;;
13445;SDS011;6795;51.232;3.764;2022-08-19T08:31:16;25.55;;;14.80;;
13445;SDS011;6795;51.232;3.764;2022-08-19T08:33:45;18.42;;;13.68;;
13445;SDS011;6795;51.232;3.764;2022-08-19T08:36:15;17.98;;;13.40;;
13445;SDS011;6795;51.232;3.764;2022-08-19T08:38:46;19.58;;;14.68;;
13445;SDS011;6795;51.232;3.764;2022-08-19T08:41:18;23.63;;;13.48;;
13445;SDS011;6795;51.232;3.764;2022-08-19T08:43:54;22.45;;;13.32;;
13445;SDS011;6795;51.232;3.764;2022-08-19T08:46:25;21.88;;;13.25;;
13445;SDS011;6795;51.232;3.764;2022-08-19T08:49:01;16.70;;;12.02;;
13445;SDS011;6795;51.232;3.764;2022-08-19T08:51:37;16.98;;;11.50;;
13445;SDS011;6795;51.232;3.764;2022-08-19T08:54:15;12.90;;;9.25;;
13445;SDS011;6795;51.232;3.764;2022-08-19T08:56:48;11.10;;;8.60;;
13445;SDS011;6795;51.232;3.764;2022-08-19T08:59:20;10.48;;;8.25;;
13445;SDS011;6795;51.232;3.764;2022-08-19T09:01:58;10.15;;;7.78;;
13445;SDS011;6795;51.232;3.764;2022-08-19T09:04:27;14.93;;;9.27;;
13445;SDS011;6795;51.232;3.764;2022-08-19T09:06:58;13.00;;;9.52;;
13445;SDS011;6795;51.232;3.764;2022-08-19T09:09:56;13.23;;;8.95;;
13445;SDS011;6795;51.232;3.764;2022-08-19T09:12:33;11.30;;;8.77;;
13445;SDS011;6795;51.232;3.764;2022-08-19T09:15:12;12.38;;;9.13;;
13445;SDS011;6795;51.232;3.764;2022-08-19T09:17:42;14.23;;;8.02;;
13445;SDS011;6795;51.232;3.764;2022-08-19T09:20:16;24.95;;;11.38;;
13445;SDS011;6795;51.232;3.764;2022-08-19T09:22:47;11.40;;;8.23;;
13445;SDS011;6795;51.232;3.764;2022-08-19T09:25:18;23.45;;;8.23;;
13445;SDS011;6795;51.232;3.764;2022-08-19T09:27:52;16.23;;;9.23;;
13445;SDS011;6795;51.232;3.764;2022-08-19T09:30:29;18.88;;;9.02;;
13445;SDS011;6795;51.232;3.764;2022-08-19T09:32:59;26.00;;;9.38;;
13445;SDS011;6795;51.232;3.764;2022-08-19T09:35:28;12.95;;;7.72;;
13445;SDS011;6795;51.232;3.764;2022-08-19T09:38:15;8.07;;;7.35;;
13445;SDS011;6795;51.232;3.764;2022-08-19T09:40:45;19.05;;;8.23;;
13445;SDS011;6795;51.232;3.764;2022-08-19T09:43:13;8.88;;;7.35;;
13445;SDS011;6795;51.232;3.764;2022-08-19T09:45:59;6.88;;;6.20;;
13445;SDS011;6795;51.232;3.764;2022-08-19T09:48:28;7.20;;;6.50;;
13445;SDS011;6795;51.232;3.764;2022-08-19T09:51:01;26.38;;;8.68;;
13445;SDS011;6795;51.232;3.764;2022-08-19T09:53:31;19.55;;;7.43;;
13445;SDS011;6795;51.232;3.764;2022-08-19T09:56:04;12.60;;;7.97;;
13445;SDS011;6795;51.232;3.764;2022-08-19T09:58:34;21.05;;;8.18;;
13445;SDS011;6795;51.232;3.764;2022-08-19T10:01:04;12.80;;;7.50;;
13445;SDS011;6795;51.232;3.764;2022-08-19T10:03:34;14.43;;;9.73;;
13445;SDS011;6795;51.232;3.764;2022-08-19T10:06:04;13.43;;;10.98;;
13445;SDS011;6795;51.232;3.764;2022-08-19T10:08:42;8.35;;;7.57;;
13445;SDS011;6795;51.232;3.764;2022-08-19T10:11:17;8.60;;;6.93;;
13445;SDS011;6795;51.232;3.764;2022-08-19T10:14:01;8.95;;;6.88;;
13445;SDS011;6795;51.232;3.764;2022-08-19T10:16:32;8.60;;;7.80;;
13445;SDS011;6795;51.232;3.764;2022-08-19T10:19:05;8.75;;;7.85;;
13445;SDS011;6795;51.232;3.764;2022-08-19T10:21:33;8.57;;;7.88;;
13445;SDS011;6795;51.232;3.764;2022-08-19T10:24:03;9.10;;;7.80;;
13445;SDS011;6795;51.232;3.764;2022-08-19T10:26:36;9.05;;;8.13;;
13445;SDS011;6795;51.232;3.764;2022-08-19T10:29:08;9.10;;;8.02;;
13445;SDS011;6795;51.232;3.764;2022-08-19T10:31:38;9.63;;;8.73;;
13445;SDS011;6795;51.232;3.764;2022-08-19T10:34:27;8.55;;;7.85;;
13445;SDS011;6795;51.232;3.764;2022-08-19T10:36:57;7.75;;;7.03;;
13445;SDS011;6795;51.232;3.764;2022-08-19T10:39:27;9.40;;;8.60;;
13445;SDS011;6795;51.232;3.764;2022-08-19T10:42:08;10.07;;;9.07;;
13445;SDS011;6795;51.232;3.764;2022-08-19T10:44:36;8.45;;;7.65;;
13445;SDS011;6795;51.232;3.764;2022-08-19T10:47:05;9.95;;;9.05;;
13445;SDS011;6795;51.232;3.764;2022-08-19T10:49:50;9.77;;;8.73;;
13445;SDS011;6795;51.232;3.764;2022-08-19T10:52:38;9.00;;;8.07;;
13445;SDS011;6795;51.232;3.764;2022-08-19T10:55:16;10.80;;;9.38;;
13445;SDS011;6795;51.232;3.764;2022-08-19T10:58:06;9.63;;;8.75;;
13445;SDS011;6795;51.232;3.764;2022-08-19T11:00:38;10.82;;;9.82;;
13445;SDS011;6795;51.232;3.764;2022-08-19T11:03:08;8.63;;;7.72;;
13445;SDS011;6795;51.232;3.764;2022-08-19T11:05:36;8.45;;;7.75;;
13445;SDS011;6795;51.232;3.764;2022-08-19T11:08:06;7.65;;;6.75;;
13445;SDS011;6795;51.232;3.764;2022-08-19T11:10:49;8.95;;;6.43;;
13445;SDS011;6795;51.232;3.764;2022-08-19T11:13:21;7.30;;;6.70;;
13445;SDS011;6795;51.232;3.764;2022-08-19T11:15:59;7.60;;;6.88;;
13445;SDS011;6795;51.232;3.764;2022-08-19T11:18:33;6.25;;;5.65;;
13445;SDS011;6795;51.232;3.764;2022-08-19T11:21:07;4.43;;;3.97;;
13445;SDS011;6795;51.232;3.764;2022-08-19T11:23:37;3.83;;;3.38;;
13445;SDS011;6795;51.232;3.764;2022-08-19T11:26:06;3.38;;;2.53;;
13445;SDS011;6795;51.232;3.764;2022-08-19T11:28:36;3.75;;;2.25;;
13445;SDS011;6795;51.232;3.764;2022-08-19T11:31:09;3.90;;;1.90;;
13445;SDS011;6795;51.232;3.764;2022-08-19T11:33:39;1.85;;;1.63;;
13445;SDS011;6795;51.232;3.764;2022-08-19T11:36:13;2.45;;;1.60;;
13445;SDS011;6795;51.232;3.764;2022-08-19T11:38:42;5.60;;;2.35;;
13445;SDS011;6795;51.232;3.764;2022-08-19T11:41:11;1.10;;;0.80;;
13445;SDS011;6795;51.232;3.764;2022-08-19T11:43:40;3.67;;;1.10;;
13445;SDS011;6795;51.232;3.764;2022-08-19T11:46:10;2.00;;;0.60;;
13445;SDS011;6795;51.232;3.764;2022-08-19T11:48:42;3.50;;;1.10;;
13445;SDS011;6795;51.232;3.764;2022-08-19T11:51:12;1.45;;;0.80;;
13445;SDS011;6795;51.232;3.764;2022-08-19T11:53:42;2.15;;;0.73;;
13445;SDS011;6795;51.232;3.764;2022-08-19T11:56:10;2.78;;;0.60;;
13445;SDS011;6795;51.232;3.764;2022-08-19T11:58:41;1.27;;;1.20;;
13445;SDS011;6795;51.232;3.764;2022-08-19T12:01:10;1.67;;;1.00;;
13445;SDS011;6795;51.232;3.764;2022-08-19T12:03:40;1.52;;;0.75;;
13445;SDS011;6795;51.232;3.764;2022-08-19T12:06:09;4.55;;;0.65;;
13445;SDS011;6795;51.232;3.764;2022-08-19T12:08:41;0.98;;;0.57;;
13445;SDS011;6795;51.232;3.764;2022-08-19T12:11:10;2.47;;;0.50;;
13445;SDS011;6795;51.232;3.764;2022-08-19T12:13:41;1.15;;;0.50;;
13445;SDS011;6795;51.232;3.764;2022-08-19T12:16:13;1.73;;;1.63;;
13445;SDS011;6795;51.232;3.764;2022-08-19T12:18:43;3.65;;;3.45;;
13445;SDS011;6795;51.232;3.764;2022-08-19T12:21:12;1.85;;;0.50;;
13445;SDS011;6795;51.232;3.764;2022-08-19T12:23:41;2.75;;;0.65;;
13445;SDS011;6795;51.232;3.764;2022-08-19T12:26:11;3.60;;;0.73;;
13445;SDS011;6795;51.232;3.764;2022-08-19T12:28:41;0.73;;;0.40;;
13445;SDS011;6795;51.232;3.764;2022-08-19T12:31:09;0.95;;;0.77;;
13445;SDS011;6795;51.232;3.764;2022-08-19T12:33:39;1.40;;;0.55;;
13445;SDS011;6795;51.232;3.764;2022-08-19T12:36:08;0.90;;;0.32;;
13445;SDS011;6795;51.232;3.764;2022-08-19T12:38:38;1.27;;;1.27;;
13445;SDS011;6795;51.232;3.764;2022-08-19T12:41:09;1.27;;;0.88;;
13445;SDS011;6795;51.232;3.764;2022-08-19T12:43:39;2.05;;;0.70;;
13445;SDS011;6795;51.232;3.764;2022-08-19T12:46:09;2.80;;;0.70;;
13445;SDS011;6795;51.232;3.764;2022-08-19T12:48:38;0.85;;;0.70;;
13445;SDS011;6795;51.232;3.764;2022-08-19T12:51:08;1.58;;;1.10;;
13445;SDS011;6795;51.232;3.764;2022-08-19T12:53:38;6.97;;;0.80;;
13445;SDS011;6795;51.232;3.764;2022-08-19T12:56:07;2.08;;;0.50;;
13445;SDS011;6795;51.232;3.764;2022-08-19T12:58:38;1.45;;;0.68;;
13445;SDS011;6795;51.232;3.764;2022-08-19T13:01:19;4.03;;;0.60;;
13445;SDS011;6795;51.232;3.764;2022-08-19T13:03:49;0.73;;;0.40;;
13445;SDS011;6795;51.232;3.764;2022-08-19T13:06:18;0.45;;;0.45;;
13445;SDS011;6795;51.232;3.764;2022-08-19T13:08:47;1.30;;;0.80;;
13445;SDS011;6795;51.232;3.764;2022-08-19T13:11:16;6.40;;;0.55;;
13445;SDS011;6795;51.232;3.764;2022-08-19T13:13:46;14.00;;;1.23;;
13445;SDS011;6795;51.232;3.764;2022-08-19T13:16:18;5.90;;;1.15;;
13445;SDS011;6795;51.232;3.764;2022-08-19T13:18:48;8.40;;;1.17;;
13445;SDS011;6795;51.232;3.764;2022-08-19T13:21:19;3.58;;;1.42;;
13445;SDS011;6795;51.232;3.764;2022-08-19T13:23:49;5.78;;;1.55;;
13445;SDS011;6795;51.232;3.764;2022-08-19T13:26:18;6.47;;;1.88;;
13445;SDS011;6795;51.232;3.764;2022-08-19T13:28:47;8.60;;;3.10;;
13445;SDS011;6795;51.232;3.764;2022-08-19T13:31:36;5.68;;;4.95;;
13445;SDS011;6795;51.232;3.764;2022-08-19T13:34:28;4.22;;;2.70;;
13445;SDS011;6795;51.232;3.764;2022-08-19T13:36:58;7.40;;;2.85;;
13445;SDS011;6795;51.232;3.764;2022-08-19T13:39:30;6.35;;;3.60;;
13445;SDS011;6795;51.232;3.764;2022-08-19T13:41:59;5.85;;;4.13;;
13445;SDS011;6795;51.232;3.764;2022-08-19T13:44:31;4.65;;;4.13;;
13445;SDS011;6795;51.232;3.764;2022-08-19T13:47:01;6.43;;;3.63;;
13445;SDS011;6795;51.232;3.764;2022-08-19T13:49:33;4.10;;;3.40;;
13445;SDS011;6795;51.232;3.764;2022-08-19T13:52:03;4.28;;;2.83;;
13445;SDS011;6795;51.232;3.764;2022-08-19T13:54:34;2.40;;;2.20;;
13445;SDS011;6795;51.232;3.764;2022-08-19T13:57:03;5.75;;;2.67;;
13445;SDS011;6795;51.232;3.764;2022-08-19T13:59:31;5.13;;;3.17;;
13445;SDS011;6795;51.232;3.764;2022-08-19T14:02:01;2.60;;;2.40;;
13445;SDS011;6795;51.232;3.764;2022-08-19T14:04:32;2.65;;;1.98;;
13445;SDS011;6795;51.232;3.764;2022-08-19T14:07:00;3.80;;;2.50;;
13445;SDS011;6795;51.232;3.764;2022-08-19T14:09:28;2.70;;;2.50;;
13445;SDS011;6795;51.232;3.764;2022-08-19T14:11:57;2.65;;;2.40;;
13445;SDS011;6795;51.232;3.764;2022-08-19T14:14:25;1.83;;;1.73;;
13445;SDS011;6795;51.232;3.764;2022-08-19T14:16:53;1.73;;;1.52;;
13445;SDS011;6795;51.232;3.764;2022-08-19T14:19:23;6.47;;;1.77;;
13445;SDS011;6795;51.232;3.764;2022-08-19T14:21:55;2.97;;;2.45;;
13445;SDS011;6795;51.232;3.764;2022-08-19T14:24:24;2.63;;;2.28;;
13445;SDS011;6795;51.232;3.764;2022-08-19T14:26:53;3.95;;;2.15;;
13445;SDS011;6795;51.232;3.764;2022-08-19T14:29:22;2.60;;;1.95;;
13445;SDS011;6795;51.232;3.764;2022-08-19T14:31:50;3.28;;;2.83;;
13445;SDS011;6795;51.232;3.764;2022-08-19T14:34:18;3.25;;;3.00;;
13445;SDS011;6795;51.232;3.764;2022-08-19T14:36:48;2.60;;;2.40;;
13445;SDS011;6795;51.232;3.764;2022-08-19T14:39:16;3.70;;;2.50;;
13445;SDS011;6795;51.232;3.764;2022-08-19T14:41:45;3.55;;;2.35;;
13445;SDS011;6795;51.232;3.764;2022-08-19T14:44:13;4.03;;;2.95;;
13445;SDS011;6795;51.232;3.764;2022-08-19T14:46:41;3.25;;;2.70;;
13445;SDS011;6795;51.232;3.764;2022-08-19T14:49:15;3.30;;;3.08;;
13445;SDS011;6795;51.232;3.764;2022-08-19T14:51:44;4.40;;;2.83;;
13445;SDS011;6795;51.232;3.764;2022-08-19T14:54:15;7.32;;;3.35;;
13445;SDS011;6795;51.232;3.764;2022-08-19T14:56:43;5.18;;;2.00;;
13445;SDS011;6795;51.232;3.764;2022-08-19T14:59:12;2.63;;;2.10;;
13445;SDS011;6795;51.232;3.764;2022-08-19T15:01:40;2.40;;;2.17;;
13445;SDS011;6795;51.232;3.764;2022-08-19T15:04:09;5.20;;;2.45;;
13445;SDS011;6795;51.232;3.764;2022-08-19T15:06:37;4.65;;;2.63;;
13445;SDS011;6795;51.232;3.764;2022-08-19T15:09:06;2.55;;;2.30;;
13445;SDS011;6795;51.232;3.764;2022-08-19T15:11:36;2.90;;;2.60;;
13445;SDS011;6795;51.232;3.764;2022-08-19T15:14:05;3.17;;;2.63;;
13445;SDS011;6795;51.232;3.764;2022-08-19T15:16:33;3.83;;;3.25;;